EGPL - Benbecula
Distance from station: E 5mi, 14km
Updated: 01/17/2018 11:50am
Few Clouds
Few Clouds
 Wind from W
Wind: W 10 mph , 17 km/h
Temperature: 41°F , 5°C
Wind Chill: 35°F , 2°C
Dew Point: 32°F , 0°C
Humidity: 70%
Barometer: 29.23 inHg , 990 hPa
Clouds: Few Clouds
Visibility: 6 miles , 10 km
Cloud details: Few Clouds 3700 ft
2018/01/17 19:50 EGPL 171950Z AUTO 26009KT 9999 FEW037/// 05/M00 Q0990